sensor_id;sensor_type;location;lat;lon;timestamp;temperature;humidity
8856;DHT22;4464;50.882;4.730;2022-12-29T00:00:09;11.70;99.90
8856;DHT22;4464;50.882;4.730;2022-12-29T00:02:35;11.70;99.90
8856;DHT22;4464;50.882;4.730;2022-12-29T00:05:01;11.70;99.90
8856;DHT22;4464;50.882;4.730;2022-12-29T00:07:27;11.70;99.90
8856;DHT22;4464;50.882;4.730;2022-12-29T00:09:53;11.80;99.90
8856;DHT22;4464;50.882;4.730;2022-12-29T00:12:23;11.80;99.90
8856;DHT22;4464;50.882;4.730;2022-12-29T00:14:48;11.80;99.90
8856;DHT22;4464;50.882;4.730;2022-12-29T00:17:33;11.80;99.90
8856;DHT22;4464;50.882;4.730;2022-12-29T00:19:59;11.80;99.90
8856;DHT22;4464;50.882;4.730;2022-12-29T00:22:43;11.80;99.90
8856;DHT22;4464;50.882;4.730;2022-12-29T00:25:28;11.80;99.90
8856;DHT22;4464;50.882;4.730;2022-12-29T00:28:15;11.80;99.90
8856;DHT22;4464;50.882;4.730;2022-12-29T00:31:00;11.90;99.90
8856;DHT22;4464;50.882;4.730;2022-12-29T00:33:44;11.90;99.90
8856;DHT22;4464;50.882;4.730;2022-12-29T00:36:36;11.90;99.90
8856;DHT22;4464;50.882;4.730;2022-12-29T00:39:12;12.00;99.90
8856;DHT22;4464;50.882;4.730;2022-12-29T00:42:03;12.00;99.90
8856;DHT22;4464;50.882;4.730;2022-12-29T00:44:47;12.10;99.90
8856;DHT22;4464;50.882;4.730;2022-12-29T00:47:14;12.10;99.90
8856;DHT22;4464;50.882;4.730;2022-12-29T00:49:40;12.20;99.90
8856;DHT22;4464;50.882;4.730;2022-12-29T00:52:08;12.20;99.90
8856;DHT22;4464;50.882;4.730;2022-12-29T00:54:37;12.20;99.90
8856;DHT22;4464;50.882;4.730;2022-12-29T00:57:08;12.20;99.90
8856;DHT22;4464;50.882;4.730;2022-12-29T00:59:41;12.20;99.90
8856;DHT22;4464;50.882;4.730;2022-12-29T01:02:09;12.30;99.90
8856;DHT22;4464;50.882;4.730;2022-12-29T01:04:36;12.30;99.90
8856;DHT22;4464;50.882;4.730;2022-12-29T01:07:05;12.20;99.90
8856;DHT22;4464;50.882;4.730;2022-12-29T01:09:31;12.20;99.90
8856;DHT22;4464;50.882;4.730;2022-12-29T01:12:16;12.10;99.90
8856;DHT22;4464;50.882;4.730;2022-12-29T01:15:02;12.10;99.90
8856;DHT22;4464;50.882;4.730;2022-12-29T01:17:30;12.20;99.90
8856;DHT22;4464;50.882;4.730;2022-12-29T01:19:58;12.10;99.90
8856;DHT22;4464;50.882;4.730;2022-12-29T01:22:25;12.20;99.90
8856;DHT22;4464;50.882;4.730;2022-12-29T01:24:51;12.10;99.90
8856;DHT22;4464;50.882;4.730;2022-12-29T01:27:19;12.20;99.90
8856;DHT22;4464;50.882;4.730;2022-12-29T01:29:46;12.10;99.90
8856;DHT22;4464;50.882;4.730;2022-12-29T01:32:12;12.00;99.90
8856;DHT22;4464;50.882;4.730;2022-12-29T01:34:38;11.80;99.90
8856;DHT22;4464;50.882;4.730;2022-12-29T01:37:04;11.70;99.90
8856;DHT22;4464;50.882;4.730;2022-12-29T01:39:33;11.50;99.90
8856;DHT22;4464;50.882;4.730;2022-12-29T01:41:59;11.40;99.90
8856;DHT22;4464;50.882;4.730;2022-12-29T01:45:02;11.30;99.90
8856;DHT22;4464;50.882;4.730;2022-12-29T01:50:06;11.30;99.90
8856;DHT22;4464;50.882;4.730;2022-12-29T01:52:38;11.20;99.90
8856;DHT22;4464;50.882;4.730;2022-12-29T01:55:08;11.20;99.90
8856;DHT22;4464;50.882;4.730;2022-12-29T01:57:40;11.10;99.90
8856;DHT22;4464;50.882;4.730;2022-12-29T02:00:13;11.10;99.90
8856;DHT22;4464;50.882;4.730;2022-12-29T02:02:51;11.00;99.90
8856;DHT22;4464;50.882;4.730;2022-12-29T02:07:57;10.90;99.90
8856;DHT22;4464;50.882;4.730;2022-12-29T02:10:29;10.90;99.90
8856;DHT22;4464;50.882;4.730;2022-12-29T02:12:56;10.90;99.90
8856;DHT22;4464;50.882;4.730;2022-12-29T02:15:37;10.80;99.90
8856;DHT22;4464;50.882;4.730;2022-12-29T02:21:48;10.80;99.90
8856;DHT22;4464;50.882;4.730;2022-12-29T02:30:05;10.70;99.90
8856;DHT22;4464;50.882;4.730;2022-12-29T02:38:13;10.60;99.90
8856;DHT22;4464;50.882;4.730;2022-12-29T02:40:51;10.60;99.90
8856;DHT22;4464;50.882;4.730;2022-12-29T02:43:56;10.70;99.90
8856;DHT22;4464;50.882;4.730;2022-12-29T02:52:33;10.60;99.90
8856;DHT22;4464;50.882;4.730;2022-12-29T02:54:59;10.70;99.90
8856;DHT22;4464;50.882;4.730;2022-12-29T03:00:07;10.70;99.90
8856;DHT22;4464;50.882;4.730;2022-12-29T03:11:02;10.40;99.90
8856;DHT22;4464;50.882;4.730;2022-12-29T03:13:39;10.30;99.90
8856;DHT22;4464;50.882;4.730;2022-12-29T03:19:36;9.90;99.90
8856;DHT22;4464;50.882;4.730;2022-12-29T03:22:13;9.90;99.90
8856;DHT22;4464;50.882;4.730;2022-12-29T03:27:58;9.90;99.90
8856;DHT22;4464;50.882;4.730;2022-12-29T03:30:28;9.90;99.90
8856;DHT22;4464;50.882;4.730;2022-12-29T03:33:03;9.80;99.90
8856;DHT22;4464;50.882;4.730;2022-12-29T03:35:34;9.80;99.90
8856;DHT22;4464;50.882;4.730;2022-12-29T03:40:33;9.90;99.90
8856;DHT22;4464;50.882;4.730;2022-12-29T03:43:02;9.90;99.90
8856;DHT22;4464;50.882;4.730;2022-12-29T03:45:29;9.90;99.90
8856;DHT22;4464;50.882;4.730;2022-12-29T03:47:55;10.00;99.90
8856;DHT22;4464;50.882;4.730;2022-12-29T03:50:21;10.00;99.90
8856;DHT22;4464;50.882;4.730;2022-12-29T03:52:47;10.00;99.90
8856;DHT22;4464;50.882;4.730;2022-12-29T03:55:14;10.00;99.90
8856;DHT22;4464;50.882;4.730;2022-12-29T03:57:40;10.10;99.90
8856;DHT22;4464;50.882;4.730;2022-12-29T04:00:08;10.10;99.90
8856;DHT22;4464;50.882;4.730;2022-12-29T04:02:37;10.10;99.90
8856;DHT22;4464;50.882;4.730;2022-12-29T04:05:04;10.20;99.90
8856;DHT22;4464;50.882;4.730;2022-12-29T04:07:32;10.20;99.90
8856;DHT22;4464;50.882;4.730;2022-12-29T04:10:02;10.20;99.90
8856;DHT22;4464;50.882;4.730;2022-12-29T04:12:28;10.20;99.90
8856;DHT22;4464;50.882;4.730;2022-12-29T04:14:54;10.20;99.90
8856;DHT22;4464;50.882;4.730;2022-12-29T04:17:21;10.10;99.90
8856;DHT22;4464;50.882;4.730;2022-12-29T04:19:49;10.20;99.90
8856;DHT22;4464;50.882;4.730;2022-12-29T04:22:15;10.10;99.90
8856;DHT22;4464;50.882;4.730;2022-12-29T04:24:41;10.10;99.90
8856;DHT22;4464;50.882;4.730;2022-12-29T04:27:10;10.00;99.90
8856;DHT22;4464;50.882;4.730;2022-12-29T04:29:41;10.00;99.90
8856;DHT22;4464;50.882;4.730;2022-12-29T04:32:09;10.00;99.90
8856;DHT22;4464;50.882;4.730;2022-12-29T04:34:35;9.90;99.90
8856;DHT22;4464;50.882;4.730;2022-12-29T04:37:01;9.90;99.90
8856;DHT22;4464;50.882;4.730;2022-12-29T04:39:27;9.90;99.90
8856;DHT22;4464;50.882;4.730;2022-12-29T04:41:55;9.90;99.90
8856;DHT22;4464;50.882;4.730;2022-12-29T04:44:21;9.90;99.90
8856;DHT22;4464;50.882;4.730;2022-12-29T04:46:48;9.90;99.90
8856;DHT22;4464;50.882;4.730;2022-12-29T04:49:14;10.00;99.90
8856;DHT22;4464;50.882;4.730;2022-12-29T04:51:40;10.00;99.90
8856;DHT22;4464;50.882;4.730;2022-12-29T04:54:07;10.00;99.90
8856;DHT22;4464;50.882;4.730;2022-12-29T04:56:33;10.10;99.90
8856;DHT22;4464;50.882;4.730;2022-12-29T04:59:00;10.20;99.90
8856;DHT22;4464;50.882;4.730;2022-12-29T05:01:25;10.20;99.90
8856;DHT22;4464;50.882;4.730;2022-12-29T05:03:54;10.30;99.90
8856;DHT22;4464;50.882;4.730;2022-12-29T05:06:20;10.30;99.90
8856;DHT22;4464;50.882;4.730;2022-12-29T05:08:46;10.40;99.90
8856;DHT22;4464;50.882;4.730;2022-12-29T05:11:17;10.60;99.90
8856;DHT22;4464;50.882;4.730;2022-12-29T05:13:48;10.70;99.90
8856;DHT22;4464;50.882;4.730;2022-12-29T05:16:17;10.70;99.90
8856;DHT22;4464;50.882;4.730;2022-12-29T05:18:42;10.70;99.90
8856;DHT22;4464;50.882;4.730;2022-12-29T05:21:11;10.80;99.90
8856;DHT22;4464;50.882;4.730;2022-12-29T05:23:37;10.90;99.90
8856;DHT22;4464;50.882;4.730;2022-12-29T05:26:05;10.90;99.90
8856;DHT22;4464;50.882;4.730;2022-12-29T05:28:32;11.00;99.90
8856;DHT22;4464;50.882;4.730;2022-12-29T05:30:58;10.90;99.90
8856;DHT22;4464;50.882;4.730;2022-12-29T05:33:25;10.80;99.90
8856;DHT22;4464;50.882;4.730;2022-12-29T05:35:51;10.90;99.90
8856;DHT22;4464;50.882;4.730;2022-12-29T05:38:20;11.00;99.90
8856;DHT22;4464;50.882;4.730;2022-12-29T05:40:47;11.00;99.90
8856;DHT22;4464;50.882;4.730;2022-12-29T05:43:12;11.00;99.90
8856;DHT22;4464;50.882;4.730;2022-12-29T05:45:39;11.00;99.90
8856;DHT22;4464;50.882;4.730;2022-12-29T05:48:05;11.00;99.90
8856;DHT22;4464;50.882;4.730;2022-12-29T05:50:31;11.00;99.90
8856;DHT22;4464;50.882;4.730;2022-12-29T05:52:56;11.10;99.90
8856;DHT22;4464;50.882;4.730;2022-12-29T05:55:26;11.10;99.90
8856;DHT22;4464;50.882;4.730;2022-12-29T05:57:53;11.10;99.90
8856;DHT22;4464;50.882;4.730;2022-12-29T06:00:22;11.30;99.90
8856;DHT22;4464;50.882;4.730;2022-12-29T06:02:49;11.20;99.90
8856;DHT22;4464;50.882;4.730;2022-12-29T06:05:16;11.20;99.90
8856;DHT22;4464;50.882;4.730;2022-12-29T06:07:42;11.10;99.90
8856;DHT22;4464;50.882;4.730;2022-12-29T06:10:08;11.10;99.90
8856;DHT22;4464;50.882;4.730;2022-12-29T06:12:34;11.00;99.90
8856;DHT22;4464;50.882;4.730;2022-12-29T06:15:01;11.00;99.90
8856;DHT22;4464;50.882;4.730;2022-12-29T06:17:26;10.90;99.90
8856;DHT22;4464;50.882;4.730;2022-12-29T06:19:55;11.00;99.90
8856;DHT22;4464;50.882;4.730;2022-12-29T06:22:24;11.00;99.90
8856;DHT22;4464;50.882;4.730;2022-12-29T06:24:49;11.10;99.90
8856;DHT22;4464;50.882;4.730;2022-12-29T06:27:16;11.00;99.90
8856;DHT22;4464;50.882;4.730;2022-12-29T06:29:44;11.00;99.90
8856;DHT22;4464;50.882;4.730;2022-12-29T06:32:11;11.00;99.90
8856;DHT22;4464;50.882;4.730;2022-12-29T06:34:42;11.00;99.90
8856;DHT22;4464;50.882;4.730;2022-12-29T06:37:08;11.00;99.90
8856;DHT22;4464;50.882;4.730;2022-12-29T06:39:34;11.00;99.90
8856;DHT22;4464;50.882;4.730;2022-12-29T06:42:00;11.10;99.90
8856;DHT22;4464;50.882;4.730;2022-12-29T06:44:26;11.00;99.90
8856;DHT22;4464;50.882;4.730;2022-12-29T06:46:57;11.00;99.90
8856;DHT22;4464;50.882;4.730;2022-12-29T06:49:24;11.00;99.90
8856;DHT22;4464;50.882;4.730;2022-12-29T06:51:51;11.00;99.90
8856;DHT22;4464;50.882;4.730;2022-12-29T06:54:19;11.00;99.90
8856;DHT22;4464;50.882;4.730;2022-12-29T06:56:48;11.10;99.90
8856;DHT22;4464;50.882;4.730;2022-12-29T06:59:17;11.20;99.90
8856;DHT22;4464;50.882;4.730;2022-12-29T07:01:46;11.30;99.90
8856;DHT22;4464;50.882;4.730;2022-12-29T07:04:12;11.30;99.90
8856;DHT22;4464;50.882;4.730;2022-12-29T07:06:40;11.30;99.90
8856;DHT22;4464;50.882;4.730;2022-12-29T07:09:08;11.30;99.90
8856;DHT22;4464;50.882;4.730;2022-12-29T07:11:36;11.20;99.90
8856;DHT22;4464;50.882;4.730;2022-12-29T07:14:03;11.20;99.90
8856;DHT22;4464;50.882;4.730;2022-12-29T07:16:32;11.20;99.90
8856;DHT22;4464;50.882;4.730;2022-12-29T07:19:01;11.20;99.90
8856;DHT22;4464;50.882;4.730;2022-12-29T07:21:27;11.20;99.90
8856;DHT22;4464;50.882;4.730;2022-12-29T07:23:54;11.20;99.90
8856;DHT22;4464;50.882;4.730;2022-12-29T07:26:22;11.20;99.90
8856;DHT22;4464;50.882;4.730;2022-12-29T07:28:53;11.10;99.90
8856;DHT22;4464;50.882;4.730;2022-12-29T07:31:22;11.10;99.90
8856;DHT22;4464;50.882;4.730;2022-12-29T07:33:48;11.00;99.90
8856;DHT22;4464;50.882;4.730;2022-12-29T07:36:15;11.00;99.90
8856;DHT22;4464;50.882;4.730;2022-12-29T07:38:42;11.10;99.90
8856;DHT22;4464;50.882;4.730;2022-12-29T07:41:08;11.10;99.90
8856;DHT22;4464;50.882;4.730;2022-12-29T07:43:34;11.10;99.90
8856;DHT22;4464;50.882;4.730;2022-12-29T07:46:03;11.10;99.90
8856;DHT22;4464;50.882;4.730;2022-12-29T07:48:29;11.10;99.90
8856;DHT22;4464;50.882;4.730;2022-12-29T07:50:58;11.00;99.90
8856;DHT22;4464;50.882;4.730;2022-12-29T07:53:25;10.90;99.90
8856;DHT22;4464;50.882;4.730;2022-12-29T07:55:53;10.90;99.90
8856;DHT22;4464;50.882;4.730;2022-12-29T07:58:19;11.00;99.90
8856;DHT22;4464;50.882;4.730;2022-12-29T08:00:45;11.00;99.90
8856;DHT22;4464;50.882;4.730;2022-12-29T08:03:15;11.00;99.90
8856;DHT22;4464;50.882;4.730;2022-12-29T08:05:43;11.00;99.90
8856;DHT22;4464;50.882;4.730;2022-12-29T08:08:09;11.00;99.90
8856;DHT22;4464;50.882;4.730;2022-12-29T08:10:35;11.00;99.90
8856;DHT22;4464;50.882;4.730;2022-12-29T08:13:01;11.00;99.90
8856;DHT22;4464;50.882;4.730;2022-12-29T08:15:27;10.90;99.90
8856;DHT22;4464;50.882;4.730;2022-12-29T08:17:54;10.90;99.90
8856;DHT22;4464;50.882;4.730;2022-12-29T08:20:23;11.00;99.90
8856;DHT22;4464;50.882;4.730;2022-12-29T08:22:52;11.00;99.90
8856;DHT22;4464;50.882;4.730;2022-12-29T08:25:18;11.00;99.90
8856;DHT22;4464;50.882;4.730;2022-12-29T08:27:46;11.00;99.90
8856;DHT22;4464;50.882;4.730;2022-12-29T08:30:12;11.00;99.90
8856;DHT22;4464;50.882;4.730;2022-12-29T08:32:41;10.90;99.90
8856;DHT22;4464;50.882;4.730;2022-12-29T08:35:07;10.90;99.90
8856;DHT22;4464;50.882;4.730;2022-12-29T08:37:36;11.00;99.90
8856;DHT22;4464;50.882;4.730;2022-12-29T08:40:03;11.00;99.90
8856;DHT22;4464;50.882;4.730;2022-12-29T08:42:32;11.00;99.90
8856;DHT22;4464;50.882;4.730;2022-12-29T08:44:59;11.10;99.90
8856;DHT22;4464;50.882;4.730;2022-12-29T08:47:25;11.10;99.90
8856;DHT22;4464;50.882;4.730;2022-12-29T08:49:54;11.10;99.90
8856;DHT22;4464;50.882;4.730;2022-12-29T08:52:20;11.10;99.90
8856;DHT22;4464;50.882;4.730;2022-12-29T08:54:49;11.10;99.90
8856;DHT22;4464;50.882;4.730;2022-12-29T08:57:17;11.10;99.90
8856;DHT22;4464;50.882;4.730;2022-12-29T08:59:46;11.10;99.90
8856;DHT22;4464;50.882;4.730;2022-12-29T09:02:11;11.10;99.90
8856;DHT22;4464;50.882;4.730;2022-12-29T09:04:40;11.00;99.90
8856;DHT22;4464;50.882;4.730;2022-12-29T09:07:09;11.00;99.90
8856;DHT22;4464;50.882;4.730;2022-12-29T09:09:35;11.00;99.90
8856;DHT22;4464;50.882;4.730;2022-12-29T09:12:01;11.10;99.90
8856;DHT22;4464;50.882;4.730;2022-12-29T09:14:27;11.10;99.90
8856;DHT22;4464;50.882;4.730;2022-12-29T09:16:55;11.10;99.90
8856;DHT22;4464;50.882;4.730;2022-12-29T09:19:39;11.10;99.90
8856;DHT22;4464;50.882;4.730;2022-12-29T09:22:06;11.10;99.90
8856;DHT22;4464;50.882;4.730;2022-12-29T09:24:32;11.00;99.90
8856;DHT22;4464;50.882;4.730;2022-12-29T09:27:02;11.00;99.90
8856;DHT22;4464;50.882;4.730;2022-12-29T09:29:29;11.00;99.90
8856;DHT22;4464;50.882;4.730;2022-12-29T09:31:55;11.10;99.90
8856;DHT22;4464;50.882;4.730;2022-12-29T09:34:21;11.20;99.90
8856;DHT22;4464;50.882;4.730;2022-12-29T09:36:47;11.40;99.90
8856;DHT22;4464;50.882;4.730;2022-12-29T09:39:12;11.40;99.90
8856;DHT22;4464;50.882;4.730;2022-12-29T09:42:00;11.40;99.90
8856;DHT22;4464;50.882;4.730;2022-12-29T09:47:09;11.60;99.90
8856;DHT22;4464;50.882;4.730;2022-12-29T09:52:29;11.40;99.90
8856;DHT22;4464;50.882;4.730;2022-12-29T09:55:03;11.40;99.90
8856;DHT22;4464;50.882;4.730;2022-12-29T09:57:34;11.50;99.90
8856;DHT22;4464;50.882;4.730;2022-12-29T10:00:14;11.50;99.90
8856;DHT22;4464;50.882;4.730;2022-12-29T10:02:56;11.50;99.90
8856;DHT22;4464;50.882;4.730;2022-12-29T10:11:29;11.90;99.90
8856;DHT22;4464;50.882;4.730;2022-12-29T10:16:53;11.90;99.90
8856;DHT22;4464;50.882;4.730;2022-12-29T10:20:27;11.80;99.90
8856;DHT22;4464;50.882;4.730;2022-12-29T10:25:26;11.50;99.90
8856;DHT22;4464;50.882;4.730;2022-12-29T10:27:57;11.50;99.90
8856;DHT22;4464;50.882;4.730;2022-12-29T10:30:27;11.50;99.90
8856;DHT22;4464;50.882;4.730;2022-12-29T10:33:02;11.50;99.90
8856;DHT22;4464;50.882;4.730;2022-12-29T10:35:35;11.40;99.90
8856;DHT22;4464;50.882;4.730;2022-12-29T10:43:29;11.50;99.90
8856;DHT22;4464;50.882;4.730;2022-12-29T10:46:01;11.50;99.90
8856;DHT22;4464;50.882;4.730;2022-12-29T10:48:30;11.50;99.90
8856;DHT22;4464;50.882;4.730;2022-12-29T10:50:58;11.50;99.90
8856;DHT22;4464;50.882;4.730;2022-12-29T10:53:38;11.50;99.90
8856;DHT22;4464;50.882;4.730;2022-12-29T11:07:26;11.80;99.90
8856;DHT22;4464;50.882;4.730;2022-12-29T11:09:53;11.70;99.90
8856;DHT22;4464;50.882;4.730;2022-12-29T11:12:25;11.60;99.90
8856;DHT22;4464;50.882;4.730;2022-12-29T11:17:27;11.70;99.90
8856;DHT22;4464;50.882;4.730;2022-12-29T11:19:53;11.70;99.90
8856;DHT22;4464;50.882;4.730;2022-12-29T11:22:28;11.60;99.90
8856;DHT22;4464;50.882;4.730;2022-12-29T11:25:05;11.60;99.90
8856;DHT22;4464;50.882;4.730;2022-12-29T11:27:34;11.70;99.90
8856;DHT22;4464;50.882;4.730;2022-12-29T11:30:01;11.70;99.90
8856;DHT22;4464;50.882;4.730;2022-12-29T11:32:29;11.80;99.90
8856;DHT22;4464;50.882;4.730;2022-12-29T11:34:58;11.80;99.90
8856;DHT22;4464;50.882;4.730;2022-12-29T11:37:27;11.80;99.90
8856;DHT22;4464;50.882;4.730;2022-12-29T11:42:41;12.00;99.90
8856;DHT22;4464;50.882;4.730;2022-12-29T11:45:32;12.10;99.90
8856;DHT22;4464;50.882;4.730;2022-12-29T11:48:15;12.20;99.90
8856;DHT22;4464;50.882;4.730;2022-12-29T11:50:52;11.90;99.90
8856;DHT22;4464;50.882;4.730;2022-12-29T11:53:25;11.70;99.90
8856;DHT22;4464;50.882;4.730;2022-12-29T11:56:03;11.60;99.90
8856;DHT22;4464;50.882;4.730;2022-12-29T11:58:36;11.50;99.90
8856;DHT22;4464;50.882;4.730;2022-12-29T12:04:05;11.40;99.90
8856;DHT22;4464;50.882;4.730;2022-12-29T12:06:36;11.40;99.90
8856;DHT22;4464;50.882;4.730;2022-12-29T12:09:36;11.30;99.90
8856;DHT22;4464;50.882;4.730;2022-12-29T12:12:05;11.30;99.90
8856;DHT22;4464;50.882;4.730;2022-12-29T12:14:38;11.30;99.90
8856;DHT22;4464;50.882;4.730;2022-12-29T12:17:16;11.20;99.90
8856;DHT22;4464;50.882;4.730;2022-12-29T12:20:00;11.10;99.90
8856;DHT22;4464;50.882;4.730;2022-12-29T12:22:35;11.20;99.90
8856;DHT22;4464;50.882;4.730;2022-12-29T12:27:42;11.10;99.90
8856;DHT22;4464;50.882;4.730;2022-12-29T12:30:21;11.10;99.90
8856;DHT22;4464;50.882;4.730;2022-12-29T12:33:04;11.10;99.90
8856;DHT22;4464;50.882;4.730;2022-12-29T12:35:46;11.10;99.90
8856;DHT22;4464;50.882;4.730;2022-12-29T12:47:15;11.10;99.90
8856;DHT22;4464;50.882;4.730;2022-12-29T12:50:10;11.10;99.90
8856;DHT22;4464;50.882;4.730;2022-12-29T13:09:38;11.40;99.90
8856;DHT22;4464;50.882;4.730;2022-12-29T13:12:27;11.40;99.90
8856;DHT22;4464;50.882;4.730;2022-12-29T13:15:15;11.40;99.90
8856;DHT22;4464;50.882;4.730;2022-12-29T13:17:59;11.40;99.90
8856;DHT22;4464;50.882;4.730;2022-12-29T13:20:46;11.50;99.90
8856;DHT22;4464;50.882;4.730;2022-12-29T13:23:35;11.40;99.90
8856;DHT22;4464;50.882;4.730;2022-12-29T13:28:57;11.30;99.90
8856;DHT22;4464;50.882;4.730;2022-12-29T13:34:42;11.30;99.90
8856;DHT22;4464;50.882;4.730;2022-12-29T13:37:17;11.30;99.90
8856;DHT22;4464;50.882;4.730;2022-12-29T13:40:10;11.30;99.90
8856;DHT22;4464;50.882;4.730;2022-12-29T13:42:37;11.30;99.90
8856;DHT22;4464;50.882;4.730;2022-12-29T13:45:09;11.30;99.90
8856;DHT22;4464;50.882;4.730;2022-12-29T13:50:26;11.00;99.90
8856;DHT22;4464;50.882;4.730;2022-12-29T13:55:51;10.80;99.90
8856;DHT22;4464;50.882;4.730;2022-12-29T13:58:38;10.70;99.90
8856;DHT22;4464;50.882;4.730;2022-12-29T14:01:14;10.80;99.90
8856;DHT22;4464;50.882;4.730;2022-12-29T14:03:52;10.90;99.90
8856;DHT22;4464;50.882;4.730;2022-12-29T14:09:00;10.90;99.90
8856;DHT22;4464;50.882;4.730;2022-12-29T14:11:39;11.00;99.90
8856;DHT22;4464;50.882;4.730;2022-12-29T14:14:35;10.90;99.90
8856;DHT22;4464;50.882;4.730;2022-12-29T14:17:29;10.90;99.90
8856;DHT22;4464;50.882;4.730;2022-12-29T14:19:57;10.90;99.90
8856;DHT22;4464;50.882;4.730;2022-12-29T14:22:26;10.90;99.90
8856;DHT22;4464;50.882;4.730;2022-12-29T14:24:52;10.80;99.90
8856;DHT22;4464;50.882;4.730;2022-12-29T14:29:50;10.60;99.90
8856;DHT22;4464;50.882;4.730;2022-12-29T14:34:57;10.40;99.90
8856;DHT22;4464;50.882;4.730;2022-12-29T14:37:32;10.40;99.90
8856;DHT22;4464;50.882;4.730;2022-12-29T14:40:16;10.40;99.90
8856;DHT22;4464;50.882;4.730;2022-12-29T14:43:16;10.40;99.90
8856;DHT22;4464;50.882;4.730;2022-12-29T14:45:56;10.40;99.90
8856;DHT22;4464;50.882;4.730;2022-12-29T14:48:39;10.50;99.90
8856;DHT22;4464;50.882;4.730;2022-12-29T14:51:29;10.60;99.90
8856;DHT22;4464;50.882;4.730;2022-12-29T14:53:56;10.70;99.90
8856;DHT22;4464;50.882;4.730;2022-12-29T14:56:28;10.80;99.90
8856;DHT22;4464;50.882;4.730;2022-12-29T14:59:00;10.70;99.90
8856;DHT22;4464;50.882;4.730;2022-12-29T15:01:36;10.60;99.90
8856;DHT22;4464;50.882;4.730;2022-12-29T15:04:17;10.60;99.90
8856;DHT22;4464;50.882;4.730;2022-12-29T15:06:44;10.60;99.90
8856;DHT22;4464;50.882;4.730;2022-12-29T15:09:33;10.60;99.90
8856;DHT22;4464;50.882;4.730;2022-12-29T15:17:47;10.60;99.90
8856;DHT22;4464;50.882;4.730;2022-12-29T15:20:30;10.60;99.90
8856;DHT22;4464;50.882;4.730;2022-12-29T15:23:10;10.60;99.90
8856;DHT22;4464;50.882;4.730;2022-12-29T15:25:56;10.60;99.90
8856;DHT22;4464;50.882;4.730;2022-12-29T15:28:36;10.60;99.90
8856;DHT22;4464;50.882;4.730;2022-12-29T15:31:08;10.40;99.90
8856;DHT22;4464;50.882;4.730;2022-12-29T15:33:39;10.10;99.90
8856;DHT22;4464;50.882;4.730;2022-12-29T15:36:27;9.70;99.90
8856;DHT22;4464;50.882;4.730;2022-12-29T15:38:53;9.10;99.90
8856;DHT22;4464;50.882;4.730;2022-12-29T15:41:39;8.80;99.90
8856;DHT22;4464;50.882;4.730;2022-12-29T15:44:32;8.60;99.90
8856;DHT22;4464;50.882;4.730;2022-12-29T15:47:27;8.50;99.90
8856;DHT22;4464;50.882;4.730;2022-12-29T15:50:04;8.30;99.90
8856;DHT22;4464;50.882;4.730;2022-12-29T15:52:32;8.20;99.90
8856;DHT22;4464;50.882;4.730;2022-12-29T15:55:02;8.20;99.90
8856;DHT22;4464;50.882;4.730;2022-12-29T15:57:36;8.10;99.90
8856;DHT22;4464;50.882;4.730;2022-12-29T16:00:04;8.10;99.90
8856;DHT22;4464;50.882;4.730;2022-12-29T16:02:47;8.10;99.90
8856;DHT22;4464;50.882;4.730;2022-12-29T16:05:17;8.00;99.90
8856;DHT22;4464;50.882;4.730;2022-12-29T16:07:55;7.90;99.90
8856;DHT22;4464;50.882;4.730;2022-12-29T16:10:32;7.90;99.90
8856;DHT22;4464;50.882;4.730;2022-12-29T16:13:34;7.90;99.90
8856;DHT22;4464;50.882;4.730;2022-12-29T16:16:07;7.90;99.90
8856;DHT22;4464;50.882;4.730;2022-12-29T16:18:37;7.90;99.90
8856;DHT22;4464;50.882;4.730;2022-12-29T16:21:25;7.90;99.90
8856;DHT22;4464;50.882;4.730;2022-12-29T16:24:00;7.80;99.90
8856;DHT22;4464;50.882;4.730;2022-12-29T16:26:31;7.80;99.90
8856;DHT22;4464;50.882;4.730;2022-12-29T16:29:01;7.80;99.90
8856;DHT22;4464;50.882;4.730;2022-12-29T16:31:54;7.70;99.90
8856;DHT22;4464;50.882;4.730;2022-12-29T16:37:29;7.60;99.90
8856;DHT22;4464;50.882;4.730;2022-12-29T16:40:28;7.60;99.90
8856;DHT22;4464;50.882;4.730;2022-12-29T16:42:58;7.50;99.90
8856;DHT22;4464;50.882;4.730;2022-12-29T16:48:36;7.50;99.90
8856;DHT22;4464;50.882;4.730;2022-12-29T16:51:16;7.60;99.90
8856;DHT22;4464;50.882;4.730;2022-12-29T16:53:49;7.60;99.90
8856;DHT22;4464;50.882;4.730;2022-12-29T16:56:17;7.60;99.90
8856;DHT22;4464;50.882;4.730;2022-12-29T16:58:52;7.50;99.90
8856;DHT22;4464;50.882;4.730;2022-12-29T17:01:21;7.60;99.90
8856;DHT22;4464;50.882;4.730;2022-12-29T17:03:53;7.50;99.90
8856;DHT22;4464;50.882;4.730;2022-12-29T17:06:22;7.50;99.90
8856;DHT22;4464;50.882;4.730;2022-12-29T17:08:49;7.50;99.90
8856;DHT22;4464;50.882;4.730;2022-12-29T17:11:28;7.60;99.90
8856;DHT22;4464;50.882;4.730;2022-12-29T17:16:54;7.70;99.90
8856;DHT22;4464;50.882;4.730;2022-12-29T17:19:28;7.70;99.90
8856;DHT22;4464;50.882;4.730;2022-12-29T17:21:55;7.70;99.90
8856;DHT22;4464;50.882;4.730;2022-12-29T17:24:21;7.70;99.90
8856;DHT22;4464;50.882;4.730;2022-12-29T17:26:53;7.70;99.90
8856;DHT22;4464;50.882;4.730;2022-12-29T17:31:53;7.70;99.90
8856;DHT22;4464;50.882;4.730;2022-12-29T17:34:19;7.70;99.90
8856;DHT22;4464;50.882;4.730;2022-12-29T17:36:46;7.80;99.90
8856;DHT22;4464;50.882;4.730;2022-12-29T17:39:12;7.90;99.90
8856;DHT22;4464;50.882;4.730;2022-12-29T17:41:38;7.90;99.90
8856;DHT22;4464;50.882;4.730;2022-12-29T17:44:05;8.00;99.90
8856;DHT22;4464;50.882;4.730;2022-12-29T17:46:34;8.00;99.90
8856;DHT22;4464;50.882;4.730;2022-12-29T17:49:00;8.10;99.90
8856;DHT22;4464;50.882;4.730;2022-12-29T17:51:26;8.10;99.90
8856;DHT22;4464;50.882;4.730;2022-12-29T17:53:52;8.20;99.90
8856;DHT22;4464;50.882;4.730;2022-12-29T17:56:21;8.30;99.90
8856;DHT22;4464;50.882;4.730;2022-12-29T17:58:49;8.40;99.90
8856;DHT22;4464;50.882;4.730;2022-12-29T18:01:17;8.40;99.90
8856;DHT22;4464;50.882;4.730;2022-12-29T18:03:46;8.40;99.90
8856;DHT22;4464;50.882;4.730;2022-12-29T18:06:12;8.40;99.90
8856;DHT22;4464;50.882;4.730;2022-12-29T18:08:40;8.40;99.90
8856;DHT22;4464;50.882;4.730;2022-12-29T18:11:20;8.40;99.90
8856;DHT22;4464;50.882;4.730;2022-12-29T18:13:46;8.30;99.90
8856;DHT22;4464;50.882;4.730;2022-12-29T18:16:14;8.30;99.90
8856;DHT22;4464;50.882;4.730;2022-12-29T18:18:41;8.20;99.90
8856;DHT22;4464;50.882;4.730;2022-12-29T18:21:17;8.20;99.90
8856;DHT22;4464;50.882;4.730;2022-12-29T18:23:45;8.30;99.90
8856;DHT22;4464;50.882;4.730;2022-12-29T18:26:22;8.20;99.90
8856;DHT22;4464;50.882;4.730;2022-12-29T18:28:49;8.20;99.90
8856;DHT22;4464;50.882;4.730;2022-12-29T18:31:38;8.20;99.90
8856;DHT22;4464;50.882;4.730;2022-12-29T18:34:13;8.10;99.90
8856;DHT22;4464;50.882;4.730;2022-12-29T18:36:42;8.10;99.90
8856;DHT22;4464;50.882;4.730;2022-12-29T18:39:10;8.10;99.90
8856;DHT22;4464;50.882;4.730;2022-12-29T18:41:38;8.10;99.90
8856;DHT22;4464;50.882;4.730;2022-12-29T18:44:04;8.00;99.90
8856;DHT22;4464;50.882;4.730;2022-12-29T18:46:34;8.00;99.90
8856;DHT22;4464;50.882;4.730;2022-12-29T18:49:02;7.90;99.90
8856;DHT22;4464;50.882;4.730;2022-12-29T18:51:28;8.00;99.90
8856;DHT22;4464;50.882;4.730;2022-12-29T18:53:54;8.00;99.90
8856;DHT22;4464;50.882;4.730;2022-12-29T18:56:20;8.00;99.90
8856;DHT22;4464;50.882;4.730;2022-12-29T18:58:47;8.00;99.90
8856;DHT22;4464;50.882;4.730;2022-12-29T19:01:21;8.10;99.90
8856;DHT22;4464;50.882;4.730;2022-12-29T19:03:50;8.10;99.90
8856;DHT22;4464;50.882;4.730;2022-12-29T19:06:18;8.10;99.90